Time;durP1;ratioP1;P1;durP2;ratioP2;P2;SDS_P1;SDS_P2;PMS_P1;PMS_P2;Temp;Humidity;BMP_temperature;BMP_pressure;BME280_temperature;BME280_humidity;BME280_pressure;Samples;Min_cycle;Max_cycle;Signal;HPM_P1;HPM_P2
2022/03/13 00:02:20;;;;;;;7.83;5.67;;;4.90;42.70;;;;;;4961255;29;20184;-83
2022/03/13 00:04:49;;;;;;;7.50;5.93;;;4.80;42.50;;;;;;4932307;29;20172;-84
2022/03/13 00:07:20;;;;;;;9.33;5.63;;;4.80;42.70;;;;;;4935153;29;20198;-83
2022/03/13 00:09:50;;;;;;;9.20;6.10;;;4.80;43.40;;;;;;4929915;29;20208;-83
2022/03/13 00:12:18;;;;;;;9.87;6.20;;;4.80;42.90;;;;;;4944589;28;20195;-83
2022/03/13 00:14:44;;;;;;;8.93;6.07;;;4.80;43.00;;;;;;4951926;28;20184;-82
2022/03/13 00:17:17;;;;;;;9.80;6.80;;;4.70;43.00;;;;;;4940792;29;20307;-82
2022/03/13 00:19:44;;;;;;;9.93;7.20;;;4.60;43.10;;;;;;4938805;29;20204;-82
2022/03/13 00:22:13;;;;;;;7.93;6.10;;;4.60;43.30;;;;;;4948205;28;20212;-82
2022/03/13 00:24:39;;;;;;;11.27;6.30;;;4.60;43.40;;;;;;4940822;29;20203;-80
2022/03/13 00:27:07;;;;;;;8.30;6.17;;;4.60;43.70;;;;;;4938739;29;20177;-82
2022/03/13 00:29:36;;;;;;;7.57;5.60;;;4.50;43.70;;;;;;4944027;28;20206;-86
2022/03/13 00:32:03;;;;;;;10.77;6.70;;;4.50;43.80;;;;;;4934448;29;20176;-83
2022/03/13 00:34:29;;;;;;;8.10;6.10;;;4.50;43.70;;;;;;4948005;28;20181;-82
2022/03/13 00:36:55;;;;;;;9.33;6.33;;;4.50;43.90;;;;;;4942850;29;20276;-83
2022/03/13 00:39:21;;;;;;;8.80;6.10;;;4.40;43.90;;;;;;4950543;28;20272;-83
2022/03/13 00:41:46;;;;;;;9.67;6.23;;;4.40;44.10;;;;;;4941545;29;20211;-82
2022/03/13 00:44:13;;;;;;;8.50;6.20;;;4.40;44.00;;;;;;4937227;29;20172;-83
2022/03/13 00:46:39;;;;;;;9.40;6.50;;;4.30;44.30;;;;;;4941361;29;20185;-83
2022/03/13 00:49:05;;;;;;;9.97;6.83;;;4.30;44.20;;;;;;4946474;28;20270;-83
2022/03/13 00:51:30;;;;;;;9.73;6.87;;;4.30;44.30;;;;;;4941327;29;20176;-83
2022/03/13 00:53:57;;;;;;;10.17;6.60;;;4.20;44.50;;;;;;4944457;28;20251;-83
2022/03/13 00:56:23;;;;;;;12.63;6.60;;;4.20;44.50;;;;;;4935573;29;20204;-84
2022/03/13 00:58:49;;;;;;;10.90;6.17;;;4.20;44.70;;;;;;4940362;28;20306;-84
2022/03/13 01:01:17;;;;;;;9.80;6.67;;;4.20;44.70;;;;;;4943651;29;20597;-84
2022/03/13 01:03:43;;;;;;;9.83;6.33;;;4.10;44.90;;;;;;4937917;28;20561;-84
2022/03/13 01:06:10;;;;;;;11.70;6.33;;;4.10;45.00;;;;;;4942546;29;20278;-84
2022/03/13 01:08:36;;;;;;;9.30;6.70;;;4.10;44.90;;;;;;4950310;28;20698;-84
2022/03/13 01:11:04;;;;;;;11.10;6.03;;;4.10;45.10;;;;;;4936209;28;20180;-84
2022/03/13 01:13:30;;;;;;;14.50;6.33;;;4.00;45.30;;;;;;4948143;29;20173;-83
2022/03/13 01:16:11;;;;;;;8.87;6.43;;;4.00;45.40;;;;;;4935778;29;20196;-84
2022/03/13 01:18:44;;;;;;;11.23;6.70;;;3.90;45.50;;;;;;4939317;29;20208;-84
2022/03/13 01:21:11;;;;;;;10.17;6.67;;;3.90;45.50;;;;;;4933234;29;20698;-83
2022/03/13 01:23:39;;;;;;;12.60;6.50;;;3.90;45.60;;;;;;4938842;28;20188;-83
2022/03/13 01:26:42;;;;;;;11.83;6.93;;;3.90;45.80;;;;;;4942200;28;20600;-83
2022/03/13 01:29:13;;;;;;;9.20;6.13;;;3.80;45.80;;;;;;4912120;28;20274;-83
2022/03/13 01:31:43;;;;;;;10.20;6.20;;;3.70;45.80;;;;;;4946294;29;20176;-83
2022/03/13 01:34:12;;;;;;;10.07;6.47;;;3.70;45.90;;;;;;4956309;28;20260;-83
2022/03/13 01:36:38;;;;;;;7.93;6.17;;;3.70;46.20;;;;;;4946634;29;20207;-83
2022/03/13 01:39:08;;;;;;;9.93;6.50;;;3.70;46.10;;;;;;4961669;28;20294;-82
2022/03/13 01:41:36;;;;;;;9.37;6.03;;;3.70;45.90;;;;;;4949193;28;20165;-85
2022/03/13 01:44:03;;;;;;;10.43;6.43;;;3.70;46.10;;;;;;4941099;29;20180;-82
2022/03/13 01:46:29;;;;;;;9.37;6.80;;;3.70;46.00;;;;;;4941950;29;20180;-83
2022/03/13 01:49:02;;;;;;;13.03;6.70;;;3.60;46.30;;;;;;4934005;29;20219;-81
2022/03/13 01:51:28;;;;;;;10.97;6.70;;;3.60;46.30;;;;;;4935196;29;20181;-82
2022/03/13 01:53:56;;;;;;;9.10;6.37;;;3.50;46.20;;;;;;4942096;29;20185;-82
2022/03/13 01:56:22;;;;;;;10.70;6.80;;;3.50;46.30;;;;;;4965208;29;20200;-82
2022/03/13 01:58:54;;;;;;;11.60;6.43;;;3.50;46.30;;;;;;4941515;29;20196;-82
2022/03/13 02:01:22;;;;;;;11.33;6.23;;;3.50;46.40;;;;;;4951991;28;20179;-81
2022/03/13 02:03:48;;;;;;;9.73;6.50;;;3.50;46.90;;;;;;4973897;28;20177;-82
2022/03/13 02:06:15;;;;;;;9.00;6.43;;;3.50;46.50;;;;;;4937459;28;20176;-83
2022/03/13 02:08:45;;;;;;;10.23;6.77;;;3.40;46.70;;;;;;4947210;29;20205;-83
2022/03/13 02:11:15;;;;;;;9.43;6.10;;;3.20;47.20;;;;;;4941706;29;20184;-82
2022/03/13 02:13:41;;;;;;;11.10;6.87;;;3.20;47.30;;;;;;4945751;28;20181;-82
2022/03/13 02:16:09;;;;;;;10.90;7.07;;;3.20;47.60;;;;;;4934784;29;20267;-82
2022/03/13 02:18:35;;;;;;;10.13;7.20;;;3.20;47.60;;;;;;4936908;29;20205;-82
2022/03/13 02:21:01;;;;;;;9.73;7.03;;;3.20;47.70;;;;;;4950398;28;20259;-82
2022/03/13 02:23:39;;;;;;;10.60;6.47;;;3.20;47.90;;;;;;4957916;28;20187;-83
2022/03/13 02:26:06;;;;;;;11.37;6.57;;;3.10;47.80;;;;;;4952941;29;20168;-82
2022/03/13 02:28:35;;;;;;;10.00;6.97;;;3.00;48.20;;;;;;4944597;28;20192;-80
2022/03/13 02:31:05;;;;;;;11.20;6.27;;;2.90;48.00;;;;;;4977925;28;20204;-83
2022/03/13 02:33:31;;;;;;;11.40;7.10;;;2.90;47.90;;;;;;4941478;29;20165;-81
2022/03/13 02:36:05;;;;;;;9.87;6.53;;;3.00;48.20;;;;;;4935747;29;20282;-81
2022/03/13 02:38:36;;;;;;;11.37;6.70;;;2.90;48.00;;;;;;4947611;29;20231;-80
2022/03/13 02:41:02;;;;;;;11.00;6.50;;;2.90;48.40;;;;;;4952598;28;20205;-81
2022/03/13 02:43:28;;;;;;;12.03;6.53;;;2.90;47.80;;;;;;4960753;28;20232;-81
2022/03/13 02:45:54;;;;;;;9.40;6.73;;;2.90;47.70;;;;;;4961468;28;20172;-80
2022/03/13 02:48:20;;;;;;;10.93;6.53;;;2.80;47.80;;;;;;4954473;28;20235;-82
2022/03/13 02:50:47;;;;;;;10.57;6.83;;;2.80;47.80;;;;;;4957054;28;20279;-80
2022/03/13 02:53:16;;;;;;;10.07;6.53;;;2.80;47.90;;;;;;4971174;28;20192;-81
2022/03/13 02:55:45;;;;;;;10.57;6.70;;;2.80;47.90;;;;;;4991485;28;20168;-80
2022/03/13 02:58:11;;;;;;;9.90;6.53;;;2.80;47.80;;;;;;4958633;28;20221;-80
2022/03/13 03:00:48;;;;;;;14.00;6.97;;;2.70;47.80;;;;;;4946207;28;20181;-79
2022/03/13 03:03:21;;;;;;;10.47;6.43;;;2.60;47.80;;;;;;4945767;29;20188;-79
2022/03/13 03:05:47;;;;;;;10.97;6.77;;;2.60;48.10;;;;;;4959500;28;20172;-81
2022/03/13 03:08:13;;;;;;;10.37;6.63;;;2.60;47.90;;;;;;4944587;29;20200;-79
2022/03/13 03:10:40;;;;;;;10.97;6.93;;;2.70;48.00;;;;;;4953261;28;20169;-79
2022/03/13 03:13:10;;;;;;;11.20;6.20;;;2.60;48.00;;;;;;4963207;28;20183;-81
2022/03/13 03:15:35;;;;;;;11.70;6.87;;;2.60;47.90;;;;;;4963353;28;20180;-79
2022/03/13 03:18:06;;;;;;;10.07;6.73;;;2.60;48.20;;;;;;4955220;28;20211;-81
2022/03/13 03:20:33;;;;;;;12.13;6.67;;;2.60;48.70;;;;;;4958688;29;20180;-81
2022/03/13 03:22:58;;;;;;;11.10;6.47;;;2.50;48.90;;;;;;4949726;29;20168;-80
2022/03/13 03:25:26;;;;;;;11.77;6.97;;;2.40;49.30;;;;;;4948855;29;20216;-80
2022/03/13 03:27:57;;;;;;;11.57;7.23;;;2.40;49.30;;;;;;4944522;29;20181;-82
2022/03/13 03:30:28;;;;;;;11.57;7.40;;;2.40;49.20;;;;;;4958061;28;20176;-81
2022/03/13 03:32:54;;;;;;;10.70;6.93;;;2.40;49.40;;;;;;4952996;29;20255;-81
2022/03/13 03:35:22;;;;;;;11.20;7.27;;;2.30;49.10;;;;;;4963422;29;20169;-82
2022/03/13 03:37:49;;;;;;;10.17;7.33;;;2.20;49.20;;;;;;4949454;28;20220;-82
2022/03/13 03:40:28;;;;;;;12.03;7.57;;;2.20;49.50;;;;;;4978493;28;20247;-82
2022/03/13 03:43:03;;;;;;;10.40;6.77;;;2.30;49.50;;;;;;4945868;28;20195;-82
2022/03/13 03:45:29;;;;;;;12.10;7.30;;;2.10;49.80;;;;;;4974535;28;20179;-82
2022/03/13 03:47:55;;;;;;;12.07;7.47;;;2.10;49.80;;;;;;4927204;28;20649;-84
2022/03/13 03:50:21;;;;;;;10.90;7.10;;;2.10;49.90;;;;;;4938221;29;20251;-82
2022/03/13 03:52:47;;;;;;;12.77;7.37;;;2.10;49.70;;;;;;4941028;28;20195;-82
2022/03/13 03:55:14;;;;;;;11.00;7.20;;;2.10;50.00;;;;;;4939799;29;20184;-82
2022/03/13 03:57:40;;;;;;;11.10;7.37;;;2.10;49.90;;;;;;4944034;29;20243;-81
2022/03/13 04:00:08;;;;;;;12.80;7.50;;;2.10;50.00;;;;;;4956615;28;20196;-81
2022/03/13 04:02:40;;;;;;;11.80;7.40;;;2.10;49.90;;;;;;4959037;28;20222;-82
2022/03/13 04:05:06;;;;;;;11.97;7.23;;;2.10;50.00;;;;;;4934658;29;20184;-82
2022/03/13 04:07:32;;;;;;;11.27;6.90;;;2.10;50.00;;;;;;4958930;29;20486;-82
2022/03/13 04:09:58;;;;;;;11.37;7.70;;;2.00;49.80;;;;;;4929541;29;20283;-81
2022/03/13 04:12:28;;;;;;;12.10;7.43;;;2.00;50.00;;;;;;4934113;29;20212;-81
2022/03/13 04:14:54;;;;;;;11.90;7.17;;;2.00;50.00;;;;;;4945472;29;20181;-82
2022/03/13 04:17:20;;;;;;;10.03;6.87;;;2.00;50.20;;;;;;4934785;28;20295;-81
2022/03/13 04:19:46;;;;;;;11.50;6.53;;;2.00;49.70;;;;;;4943015;29;20201;-81
2022/03/13 04:22:12;;;;;;;10.73;7.40;;;2.00;49.90;;;;;;4950836;29;20226;-81
2022/03/13 04:24:38;;;;;;;11.03;7.40;;;2.00;49.60;;;;;;4930395;29;20177;-81
2022/03/13 04:27:04;;;;;;;10.73;7.30;;;1.90;50.10;;;;;;4928191;29;20217;-80
2022/03/13 04:29:30;;;;;;;12.33;7.00;;;2.00;50.30;;;;;;4926939;29;20200;-81
2022/03/13 04:31:57;;;;;;;12.33;7.50;;;2.10;50.20;;;;;;4951122;29;20187;-80
2022/03/13 04:34:22;;;;;;;12.40;7.37;;;1.90;50.30;;;;;;4939987;28;20191;-82
2022/03/13 04:36:49;;;;;;;11.97;7.50;;;1.80;50.50;;;;;;4944517;29;20204;-81
2022/03/13 04:39:16;;;;;;;10.47;7.00;;;1.80;51.00;;;;;;4951724;28;20204;-82
2022/03/13 04:41:45;;;;;;;15.73;7.87;;;1.80;50.90;;;;;;4936634;29;20672;-81
2022/03/13 04:44:14;;;;;;;12.10;7.70;;;1.80;50.50;;;;;;4934825;28;20195;-81
2022/03/13 04:46:41;;;;;;;11.27;7.73;;;1.70;50.50;;;;;;4938165;29;20177;-81
2022/03/13 04:49:07;;;;;;;10.67;7.13;;;1.70;50.50;;;;;;4931929;28;20224;-81
2022/03/13 04:51:34;;;;;;;10.53;7.20;;;1.60;50.90;;;;;;4939766;29;20226;-81
2022/03/13 04:54:00;;;;;;;11.63;8.00;;;1.70;50.80;;;;;;4933490;28;20185;-82
2022/03/13 04:56:26;;;;;;;10.47;7.13;;;1.70;50.90;;;;;;4937243;28;20209;-82
2022/03/13 04:58:52;;;;;;;10.87;7.03;;;1.70;50.90;;;;;;4936696;29;20200;-82
2022/03/13 05:01:19;;;;;;;12.60;7.90;;;1.60;51.10;;;;;;4938776;28;20235;-82
2022/03/13 05:03:46;;;;;;;11.07;7.13;;;1.60;51.30;;;;;;4936941;29;20244;-81
2022/03/13 05:06:12;;;;;;;12.43;7.23;;;1.60;51.30;;;;;;4935237;29;20232;-81
2022/03/13 05:08:39;;;;;;;14.60;8.00;;;1.50;51.60;;;;;;4939393;29;20211;-81
2022/03/13 05:11:07;;;;;;;12.50;8.20;;;1.50;51.50;;;;;;4944861;28;20263;-81
2022/03/13 05:13:34;;;;;;;11.60;7.10;;;1.50;51.60;;;;;;4942045;29;20192;-82
2022/03/13 05:16:00;;;;;;;10.73;6.17;;;1.40;51.80;;;;;;4955705;28;20207;-81
2022/03/13 05:18:26;;;;;;;12.43;7.97;;;1.40;51.70;;;;;;4950752;28;20268;-81
2022/03/13 05:20:52;;;;;;;13.10;7.90;;;1.40;51.80;;;;;;4945146;29;20692;-81
2022/03/13 05:23:17;;;;;;;11.70;7.63;;;1.40;51.90;;;;;;4953710;28;20176;-82
2022/03/13 05:25:43;;;;;;;13.60;8.03;;;1.40;51.80;;;;;;4931767;29;20210;-81
2022/03/13 05:28:09;;;;;;;14.20;7.30;;;1.30;51.70;;;;;;4937229;28;20208;-81
2022/03/13 05:30:37;;;;;;;12.77;7.63;;;1.30;52.00;;;;;;4937575;28;20187;-82
2022/03/13 05:33:04;;;;;;;10.57;6.93;;;1.30;51.80;;;;;;4941782;29;20180;-82
2022/03/13 05:35:32;;;;;;;13.83;7.77;;;1.30;51.50;;;;;;4934720;28;20182;-81
2022/03/13 05:38:00;;;;;;;10.57;6.90;;;1.20;51.40;;;;;;4935897;29;20228;-81
2022/03/13 05:40:25;;;;;;;12.93;7.90;;;1.20;51.40;;;;;;4934337;28;20251;-81
2022/03/13 05:42:59;;;;;;;12.57;7.27;;;1.20;51.20;;;;;;4936058;29;20224;-82
2022/03/13 05:45:28;;;;;;;12.83;7.70;;;1.20;51.40;;;;;;4944623;28;20502;-82
2022/03/13 05:48:05;;;;;;;11.60;7.60;;;1.20;51.50;;;;;;4942915;28;20191;-79
2022/03/13 05:50:31;;;;;;;12.43;7.07;;;1.20;51.60;;;;;;4946680;29;20187;-81
2022/03/13 05:52:57;;;;;;;10.30;7.00;;;1.20;51.70;;;;;;4947233;28;20200;-81
2022/03/13 05:55:30;;;;;;;10.87;7.60;;;1.20;51.70;;;;;;4946381;29;20190;-81
2022/03/13 05:58:01;;;;;;;13.07;7.37;;;1.20;51.70;;;;;;4964260;28;20651;-82
2022/03/13 06:00:31;;;;;;;12.63;7.80;;;1.20;51.60;;;;;;4947976;28;20322;-80
2022/03/13 06:02:57;;;;;;;12.53;7.43;;;1.10;51.70;;;;;;4945836;29;20182;-81
2022/03/13 06:05:25;;;;;;;12.37;8.03;;;1.10;51.80;;;;;;4954454;28;20208;-81
2022/03/13 06:07:51;;;;;;;10.73;7.40;;;1.10;51.50;;;;;;4937707;29;20558;-81
2022/03/13 06:10:18;;;;;;;13.63;8.00;;;1.10;51.60;;;;;;4945855;28;20281;-82
2022/03/13 06:12:44;;;;;;;11.50;7.70;;;1.10;51.40;;;;;;4944831;29;20260;-81
2022/03/13 06:15:17;;;;;;;14.90;7.83;;;1.10;51.40;;;;;;4936199;29;20173;-82
2022/03/13 06:17:53;;;;;;;11.40;8.07;;;1.20;51.20;;;;;;4940565;28;20685;-81
2022/03/13 06:20:21;;;;;;;10.73;6.87;;;1.20;51.20;;;;;;4947287;29;20169;-80
2022/03/13 06:22:48;;;;;;;11.47;7.37;;;1.20;51.00;;;;;;4943846;29;20192;-82
2022/03/13 06:25:14;;;;;;;13.43;7.43;;;1.20;51.10;;;;;;4936434;29;20206;-81
2022/03/13 06:27:41;;;;;;;12.47;7.40;;;1.30;51.20;;;;;;4940559;28;20177;-81
2022/03/13 06:30:20;;;;;;;12.93;8.00;;;1.30;51.30;;;;;;4949153;28;20267;-82
2022/03/13 06:32:51;;;;;;;11.17;7.23;;;1.30;51.10;;;;;;4943514;29;20192;-80
2022/03/13 06:35:21;;;;;;;11.23;7.70;;;1.30;51.50;;;;;;4935756;29;20184;-82
2022/03/13 06:37:49;;;;;;;12.23;7.20;;;1.30;51.50;;;;;;4936148;28;20204;-82
2022/03/13 06:40:20;;;;;;;11.43;7.20;;;1.30;51.70;;;;;;4940971;29;20173;-80
2022/03/13 06:42:49;;;;;;;12.17;7.67;;;1.40;51.30;;;;;;4949850;28;20172;-80
2022/03/13 06:45:23;;;;;;;10.80;7.20;;;1.40;50.90;;;;;;4948679;28;20186;-82
2022/03/13 06:47:50;;;;;;;11.23;7.40;;;1.40;50.60;;;;;;4943173;29;20188;-83
2022/03/13 06:50:22;;;;;;;9.50;6.80;;;1.40;50.50;;;;;;4937344;29;20184;-82
2022/03/13 06:52:59;;;;;;;10.07;7.17;;;1.50;50.90;;;;;;4935817;29;20192;-83
2022/03/13 06:55:27;;;;;;;12.53;7.47;;;1.40;50.90;;;;;;4942036;28;20183;-81
2022/03/13 06:57:55;;;;;;;12.90;7.03;;;1.50;50.70;;;;;;4946399;28;20212;-81
2022/03/13 07:00:22;;;;;;;10.53;7.37;;;1.50;50.40;;;;;;4940844;29;20176;-81
2022/03/13 07:02:59;;;;;;;;;;;;;;;;;;;;;
2022/03/13 07:05:26;;;;;;;11.57;7.30;;;1.60;50.50;;;;;;4954804;28;20644;-82
2022/03/13 07:07:54;;;;;;;13.83;7.03;;;1.70;50.00;;;;;;4934788;29;20225;-81
2022/03/13 07:10:21;;;;;;;11.30;7.50;;;1.70;49.80;;;;;;4936969;28;20177;-82
2022/03/13 07:12:50;;;;;;;12.03;7.50;;;1.80;49.60;;;;;;4938952;29;20200;-82
2022/03/13 07:15:18;;;;;;;12.07;7.30;;;1.90;49.70;;;;;;4939847;28;20482;-81
2022/03/13 07:17:46;;;;;;;12.90;7.37;;;1.90;49.60;;;;;;4942220;29;20215;-81
2022/03/13 07:20:13;;;;;;;11.23;7.90;;;1.90;49.60;;;;;;4936184;29;20252;-82
2022/03/13 07:22:42;;;;;;;11.53;7.83;;;1.90;49.50;;;;;;4945765;29;20185;-85
2022/03/13 07:25:09;;;;;;;13.63;7.00;;;2.00;49.60;;;;;;4940338;28;20192;-84
2022/03/13 07:27:36;;;;;;;13.60;7.43;;;2.00;49.70;;;;;;4939921;29;20183;-81
2022/03/13 07:30:08;;;;;;;10.30;7.10;;;2.00;49.20;;;;;;4954753;28;20208;-83
2022/03/13 07:32:35;;;;;;;12.50;7.60;;;2.10;49.40;;;;;;4947795;29;20180;-84
2022/03/13 07:35:01;;;;;;;11.93;7.70;;;2.10;49.60;;;;;;4934779;29;20195;-84
2022/03/13 07:37:30;;;;;;;10.30;7.07;;;2.20;50.00;;;;;;4961102;29;20232;-82
2022/03/13 07:39:56;;;;;;;10.50;7.07;;;2.20;49.30;;;;;;4934014;28;20232;-82
2022/03/13 07:42:21;;;;;;;10.87;6.50;;;2.30;48.60;;;;;;4941182;29;20180;-82
2022/03/13 07:44:47;;;;;;;11.57;6.73;;;2.30;48.60;;;;;;4934625;29;20236;-83
2022/03/13 07:47:13;;;;;;;10.47;7.27;;;2.30;48.70;;;;;;4943611;28;20176;-85
2022/03/13 07:49:39;;;;;;;11.47;6.97;;;2.30;48.30;;;;;;4938843;29;20219;-82
2022/03/13 07:52:06;;;;;;;11.77;6.80;;;2.40;48.00;;;;;;4945431;29;20180;-77
2022/03/13 07:54:31;;;;;;;11.23;7.20;;;2.50;47.90;;;;;;4930754;29;20187;-80
2022/03/13 07:56:57;;;;;;;11.50;7.13;;;2.50;47.90;;;;;;4936712;28;20207;-80
2022/03/13 07:59:33;;;;;;;13.53;7.70;;;2.60;47.60;;;;;;4932700;28;20199;-80
2022/03/13 08:02:02;;;;;;;12.57;7.97;;;2.60;48.00;;;;;;4937926;29;20243;-81
2022/03/13 08:04:28;;;;;;;11.27;7.30;;;2.70;48.50;;;;;;4948818;29;20185;-78
2022/03/13 08:06:54;;;;;;;11.53;6.73;;;2.70;47.40;;;;;;4940029;28;20176;-80
2022/03/13 08:09:26;;;;;;;11.70;7.00;;;2.80;47.40;;;;;;4933372;29;20196;-80
2022/03/13 08:11:53;;;;;;;13.30;7.43;;;2.80;47.10;;;;;;4925074;29;20165;-79
2022/03/13 08:14:19;;;;;;;11.33;6.50;;;2.80;46.90;;;;;;4942189;28;20176;-79
2022/03/13 08:16:45;;;;;;;12.97;7.70;;;2.90;46.80;;;;;;4941039;29;20200;-79
2022/03/13 08:19:11;;;;;;;12.03;6.93;;;2.90;47.20;;;;;;4938319;29;20271;-79
2022/03/13 08:21:37;;;;;;;9.33;6.87;;;3.00;47.00;;;;;;4937748;28;20268;-78
2022/03/13 08:24:07;;;;;;;11.30;7.10;;;3.10;46.60;;;;;;4931673;29;20211;-78
2022/03/13 08:26:40;;;;;;;10.70;7.23;;;3.10;46.60;;;;;;4941523;29;20181;-79
2022/03/13 08:29:07;;;;;;;11.10;6.97;;;3.10;46.30;;;;;;4930430;29;20208;-78
2022/03/13 08:31:38;;;;;;;11.90;6.63;;;3.10;46.50;;;;;;4923473;29;20191;-79
2022/03/13 08:34:07;;;;;;;11.57;7.57;;;3.10;46.80;;;;;;4925815;29;20194;-79
2022/03/13 08:36:46;;;;;;;12.30;7.53;;;3.30;46.80;;;;;;4944502;29;20236;-79
2022/03/13 08:39:15;;;;;;;12.03;7.27;;;3.30;46.60;;;;;;4922565;29;20248;-79
2022/03/13 08:41:41;;;;;;;12.70;8.33;;;3.30;46.30;;;;;;4924735;29;20183;-82
2022/03/13 08:44:08;;;;;;;16.60;7.70;;;3.40;46.40;;;;;;4927977;29;20234;-80
2022/03/13 08:46:34;;;;;;;17.80;9.20;;;3.50;46.30;;;;;;4934245;29;20172;-81
2022/03/13 08:49:00;;;;;;;17.60;9.50;;;3.60;46.80;;;;;;4925255;29;20208;-82
2022/03/13 08:51:27;;;;;;;14.30;8.27;;;3.70;46.50;;;;;;4926409;29;20180;-81
2022/03/13 08:53:54;;;;;;;12.03;7.53;;;3.70;47.30;;;;;;4936483;29;20576;-81
2022/03/13 08:56:21;;;;;;;9.97;7.10;;;3.80;46.90;;;;;;4943551;29;20589;-81
2022/03/13 08:58:47;;;;;;;9.50;6.97;;;3.90;47.60;;;;;;4936282;29;20192;-81
2022/03/13 09:01:14;;;;;;;11.00;6.90;;;3.90;46.50;;;;;;4930599;28;20216;-78
2022/03/13 09:03:41;;;;;;;11.83;7.23;;;4.00;46.90;;;;;;4938221;29;20629;-80
2022/03/13 09:06:07;;;;;;;11.70;7.47;;;4.00;46.20;;;;;;4974041;23;20184;-81
2022/03/13 09:08:33;;;;;;;12.40;7.13;;;4.00;47.30;;;;;;4946630;28;20216;-80
2022/03/13 09:10:59;;;;;;;11.77;7.10;;;4.10;46.40;;;;;;4952487;29;20184;-80
2022/03/13 09:13:25;;;;;;;12.23;6.53;;;4.10;46.20;;;;;;4949025;29;20207;-79
2022/03/13 09:15:51;;;;;;;10.47;7.00;;;4.20;46.30;;;;;;4922544;29;20221;-82
2022/03/13 09:18:17;;;;;;;13.50;7.67;;;4.20;46.90;;;;;;4921815;29;20520;-83
2022/03/13 09:20:43;;;;;;;12.50;7.50;;;4.30;47.00;;;;;;4918895;29;20174;-83
2022/03/13 09:23:09;;;;;;;10.17;6.73;;;4.40;46.80;;;;;;4928570;29;20211;-82
2022/03/13 09:25:35;;;;;;;10.00;7.33;;;4.40;46.60;;;;;;4943009;29;20689;-82
2022/03/13 09:28:02;;;;;;;14.30;7.67;;;4.50;46.50;;;;;;4917202;29;20205;-81
2022/03/13 09:30:27;;;;;;;10.83;7.33;;;4.60;46.60;;;;;;4933947;29;20200;-81
2022/03/13 09:32:53;;;;;;;11.23;7.43;;;4.70;46.60;;;;;;4916068;29;20275;-79
2022/03/13 09:35:19;;;;;;;13.20;7.10;;;4.70;46.50;;;;;;4914065;29;20186;-81
2022/03/13 09:37:52;;;;;;;12.17;7.67;;;4.90;46.10;;;;;;4925946;29;20223;-82
2022/03/13 09:40:19;;;;;;;10.60;6.97;;;4.90;46.00;;;;;;4934218;29;20172;-82
2022/03/13 09:42:46;;;;;;;10.83;6.60;;;5.00;45.10;;;;;;4935453;29;20187;-83
2022/03/13 09:45:16;;;;;;;9.87;6.87;;;5.10;45.40;;;;;;4934428;29;20176;-82
2022/03/13 09:47:42;;;;;;;8.87;6.57;;;5.20;45.20;;;;;;4933336;29;20722;-84
2022/03/13 09:50:11;;;;;;;10.47;6.70;;;5.20;45.10;;;;;;4933657;29;20189;-82
2022/03/13 09:52:40;;;;;;;13.63;7.53;;;5.40;45.20;;;;;;4935776;29;20252;-82
2022/03/13 09:55:10;;;;;;;10.17;6.70;;;5.40;44.60;;;;;;4956643;28;20239;-81
2022/03/13 09:57:39;;;;;;;11.13;6.60;;;5.40;44.40;;;;;;4956810;28;20229;-80
2022/03/13 10:00:13;;;;;;;11.27;6.90;;;5.50;44.20;;;;;;4958892;28;20186;-79
2022/03/13 10:02:41;;;;;;;10.63;6.40;;;5.60;43.80;;;;;;4971514;28;20192;-81
2022/03/13 10:05:09;;;;;;;10.60;6.80;;;5.60;43.50;;;;;;4953413;28;20698;-82
2022/03/13 10:08:04;;;;;;;8.47;6.27;;;5.70;43.40;;;;;;4950545;29;20244;-82
2022/03/13 10:10:46;;;;;;;8.80;6.63;;;5.80;43.60;;;;;;4932289;29;20196;-81
2022/03/13 10:13:14;;;;;;;9.50;6.80;;;6.00;43.60;;;;;;4936623;29;20185;-83
2022/03/13 10:15:48;;;;;;;10.57;7.10;;;6.20;43.30;;;;;;4937735;29;20195;-81
2022/03/13 10:18:14;;;;;;;8.70;6.87;;;6.30;42.70;;;;;;4936213;29;20219;-82
2022/03/13 10:20:41;;;;;;;10.13;7.00;;;6.50;42.40;;;;;;4934233;29;20177;-81
2022/03/13 10:23:15;;;;;;;9.50;6.93;;;6.90;42.80;;;;;;4935927;29;20179;-81
2022/03/13 10:25:43;;;;;;;11.13;6.80;;;7.30;41.60;;;;;;4951333;29;20276;-81
2022/03/13 10:28:12;;;;;;;13.23;7.20;;;7.90;42.00;;;;;;4933005;29;20568;-80
2022/03/13 10:30:39;;;;;;;12.00;7.30;;;8.30;40.90;;;;;;4929262;29;20204;-83
2022/03/13 10:33:06;;;;;;;10.83;7.00;;;8.60;39.30;;;;;;4932646;29;20328;-83
2022/03/13 10:35:32;;;;;;;9.57;6.83;;;8.90;38.60;;;;;;4933315;28;20271;-84
2022/03/13 10:37:58;;;;;;;10.77;6.97;;;9.00;37.90;;;;;;4943772;29;20281;-83
2022/03/13 10:40:32;;;;;;;15.43;7.17;;;9.10;38.00;;;;;;4950642;29;20181;-83
2022/03/13 10:43:07;;;;;;;10.33;6.70;;;9.50;37.60;;;;;;4965391;29;20175;-83
2022/03/13 10:45:38;;;;;;;8.33;6.60;;;9.70;37.40;;;;;;4950177;29;20180;-80
2022/03/13 10:48:36;;;;;;;8.73;7.13;;;9.80;36.20;;;;;;4966920;29;20229;-83
2022/03/13 10:51:07;;;;;;;10.37;6.37;;;10.00;35.90;;;;;;4962654;28;20243;-82
2022/03/13 10:53:38;;;;;;;9.63;7.10;;;10.10;36.00;;;;;;4979170;28;20189;-83
2022/03/13 10:56:12;;;;;;;9.97;7.53;;;10.10;35.80;;;;;;4986368;28;20189;-83
2022/03/13 10:58:40;;;;;;;11.43;7.43;;;10.30;35.40;;;;;;4983476;28;20176;-83
2022/03/13 11:01:11;;;;;;;10.17;7.23;;;10.40;35.50;;;;;;4986157;28;20216;-82
2022/03/13 11:03:48;;;;;;;12.00;6.50;;;10.40;35.50;;;;;;4987034;28;20265;-83
2022/03/13 11:06:14;;;;;;;10.40;7.10;;;10.50;35.90;;;;;;4968590;28;20207;-84
2022/03/13 11:08:41;;;;;;;10.43;6.57;;;10.80;34.90;;;;;;4982335;28;20191;-84
2022/03/13 11:11:09;;;;;;;8.80;6.87;;;10.90;35.40;;;;;;4952584;28;20599;-83
2022/03/13 11:13:35;;;;;;;8.40;6.97;;;11.10;34.80;;;;;;4953114;28;20199;-82
2022/03/13 11:16:03;;;;;;;9.90;7.33;;;11.20;34.30;;;;;;4970798;28;20183;-85
2022/03/13 11:18:35;;;;;;;9.23;6.90;;;11.40;34.20;;;;;;4968965;28;20188;-83
2022/03/13 11:21:06;;;;;;;7.63;6.70;;;11.60;34.10;;;;;;4966793;28;20314;-83
2022/03/13 11:23:33;;;;;;;9.43;7.00;;;11.50;33.90;;;;;;4970962;28;20246;-82
2022/03/13 11:25:59;;;;;;;13.10;7.73;;;11.20;34.40;;;;;;4952096;28;20186;-84
2022/03/13 11:28:29;;;;;;;9.40;7.10;;;11.40;34.20;;;;;;4949953;28;20191;-83
2022/03/13 11:30:56;;;;;;;14.57;7.47;;;11.50;34.10;;;;;;4966776;28;20183;-83
2022/03/13 11:33:41;;;;;;;11.23;7.27;;;11.70;34.10;;;;;;4949444;28;20274;-83
2022/03/13 11:36:30;;;;;;;10.03;6.40;;;11.70;34.00;;;;;;4949599;28;20271;-83
2022/03/13 11:39:01;;;;;;;8.03;6.33;;;11.70;34.00;;;;;;4959604;28;20205;-83
2022/03/13 11:41:53;;;;;;;11.57;7.03;;;11.80;33.80;;;;;;4968871;28;20168;-83
2022/03/13 11:44:22;;;;;;;11.07;6.67;;;12.10;33.60;;;;;;4967705;28;20188;-83
2022/03/13 11:46:58;;;;;;;9.47;7.03;;;12.40;33.10;;;;;;4966694;28;20675;-84
2022/03/13 11:49:29;;;;;;;9.60;7.30;;;12.70;32.70;;;;;;4966753;28;20183;-83
2022/03/13 11:52:10;;;;;;;10.33;7.27;;;13.00;32.70;;;;;;4968532;28;20602;-84
2022/03/13 11:55:08;;;;;;;9.53;7.17;;;13.40;31.60;;;;;;4967425;28;20192;-84
2022/03/13 11:57:42;;;;;;;11.50;7.03;;;13.50;31.60;;;;;;4971565;28;20216;-83
2022/03/13 12:00:11;;;;;;;7.93;6.73;;;13.10;32.20;;;;;;4972661;28;20187;-82
2022/03/13 12:02:43;;;;;;;9.03;6.80;;;13.20;32.20;;;;;;4983952;28;20183;-82
2022/03/13 12:05:31;;;;;;;9.77;6.73;;;13.10;31.70;;;;;;4951791;28;20253;-83
2022/03/13 12:08:08;;;;;;;11.17;6.67;;;12.80;31.40;;;;;;4967841;28;20223;-82
2022/03/13 12:10:42;;;;;;;7.83;6.60;;;12.70;31.70;;;;;;4957587;28;20311;-83
2022/03/13 12:13:13;;;;;;;7.97;6.70;;;12.50;32.10;;;;;;4948349;28;20222;-83
2022/03/13 12:15:40;;;;;;;8.57;6.50;;;12.00;33.10;;;;;;4948815;28;20188;-83
2022/03/13 12:18:17;;;;;;;8.77;6.80;;;11.60;33.30;;;;;;4964885;28;20236;-82
2022/03/13 12:20:45;;;;;;;9.30;6.40;;;11.00;33.70;;;;;;4950868;28;20202;-82
2022/03/13 12:23:24;;;;;;;8.10;6.37;;;10.70;33.90;;;;;;4950250;28;20182;-84
2022/03/13 12:25:54;;;;;;;9.10;6.30;;;10.60;34.30;;;;;;4965247;28;20200;-82
2022/03/13 12:28:36;;;;;;;8.03;6.10;;;10.50;34.80;;;;;;4965251;28;20176;-82
2022/03/13 12:31:02;;;;;;;8.10;6.33;;;10.40;34.80;;;;;;4965612;28;20230;-81
2022/03/13 12:33:31;;;;;;;7.73;5.87;;;10.20;35.00;;;;;;4965922;28;20708;-81
2022/03/13 12:35:57;;;;;;;7.83;6.00;;;10.30;35.10;;;;;;4965918;28;20180;-82
2022/03/13 12:38:31;;;;;;;12.60;6.33;;;10.30;35.20;;;;;;4953804;28;20208;-83
2022/03/13 12:40:59;;;;;;;7.83;5.80;;;10.40;35.10;;;;;;4943754;28;20600;-82
2022/03/13 12:43:44;;;;;;;8.57;6.37;;;10.40;35.20;;;;;;4950869;28;20180;-83
2022/03/13 12:46:12;;;;;;;9.93;6.83;;;10.50;35.30;;;;;;4951924;28;20215;-82
2022/03/13 12:48:39;;;;;;;7.90;6.20;;;10.50;35.00;;;;;;4951901;28;20187;-81
2022/03/13 12:51:04;;;;;;;9.77;6.47;;;10.50;35.10;;;;;;4953351;28;20176;-82
2022/03/13 12:53:31;;;;;;;7.20;5.47;;;10.50;34.90;;;;;;4950940;28;20199;-84
2022/03/13 12:55:57;;;;;;;8.93;6.30;;;10.50;34.70;;;;;;4954241;28;20239;-83
2022/03/13 12:58:42;;;;;;;10.07;6.57;;;10.50;35.10;;;;;;4951761;28;20205;-83